Latest Weather Observations for East Sale

IDV60801

Issued at 10:32 pm EDT Sunday 19 February 2017 (issued every 30 minutes, with the page automatically refreshed every 10 minutes)

About weather observations | Map of weather stations | Latest weather observations for VIC | Other Formats
Station Details ID: 085072 Name: EAST SALE AIRPORT Lat: -38.12 Lon: 147.13 Height: 4.6 m
Data from the previous 72 hours. | See also: Recent months at East Sale
Date/Time
EDT
Temp
°C
App
Temp
°C
Dew
Point
°C
Rel
Hum
%
Delta-T
°C
Wind Press
QNH
hPa
Press
MSL
hPa
Rain since
9am
mm
Dir  Spd
km/h
Gust
km/h
Spd
kts
Gust
kts
19/10:30pm 9.9 7.1 7.0 82 1.4 W 11 15 6 8 1009.4 1009.4 3.4
19/10:00pm 10.4 7.3 7.3 81 1.5 NW 13 15 7 8 1009.5 1009.5 3.4
19/09:30pm 10.9 7.4 7.4 79 1.7 NNW 15 20 8 11 1009.6 1009.6 3.4
19/09:00pm 11.4 7.8 8.4 82 1.5 NW 17 20 9 11 1009.2 1009.2 3.4
19/08:30pm 11.1 8.9 9.5 90 0.8 WNW 11 15 6 8 1009.4 1009.4 3.4
19/08:00pm 11.1 9.2 9.2 88 1.0 WNW 9 11 5 6 1009.0 1009.0 3.4
19/07:30pm 11.5 9.4 9.6 88 1.0 NW 11 13 6 7 1008.6 1008.6 3.4
19/07:00pm 11.7 9.4 9.1 84 1.3 WNW 11 17 6 9 1008.1 1008.1 3.2
19/06:30pm 12.2 8.7 10.1 87 1.1 WNW 19 24 10 13 1008.4 1008.4 2.6
19/06:00pm 12.3 9.3 10.5 89 0.9 WSW 17 24 9 13 1007.9 1007.9 2.2
19/05:30pm 11.8 7.6 9.7 87 1.1 WSW 22 33 12 18 1007.5 1007.5 1.6
19/05:00pm 11.4 5.1 9.0 85 1.2 WSW 32 44 17 24 1006.6 1006.6 1.4
19/04:30pm 11.7 5.4 9.1 84 1.3 WSW 32 44 17 24 1006.9 1006.9 0.6
19/04:10pm 12.6 5.0 8.9 78 1.9 WSW 39 57 21 31 1007.0 1007.0 0.6
19/04:00pm 12.8 5.1 8.5 75 2.1 WSW 39 56 21 30 1006.8 1006.8 0.6
19/03:30pm 14.8 7.9 9.0 68 3.0 WSW 35 54 19 29 1006.8 1006.8 0.6
19/03:17pm 15.2 8.3 8.9 66 3.2 WSW 35 54 19 29 1006.7 1006.7 0.6
19/03:00pm 15.2 8.9 8.9 66 3.2 W 32 46 17 25 1007.1 1007.1 0.6
19/02:38pm 15.5 9.3 9.4 67 3.1 WSW 32 50 17 27 1007.0 1007.0 0.6
19/02:30pm 15.6 10.4 10.2 70 2.8 WSW 28 43 15 23 1006.9 1006.9 0.6
19/02:11pm 15.2 10.0 10.2 72 2.6 WSW 28 50 15 27 1006.8 1006.8 0.4
19/02:00pm 17.6 12.7 6.8 49 5.4 WSW 22 33 12 18 1006.7 1006.7 0.0
19/01:30pm 18.0 13.7 5.2 43 6.2 WSW 17 24 9 13 1006.9 1006.9 0.0
19/01:00pm 18.4 13.9 6.9 47 5.8 WSW 20 26 11 14 1007.2 1007.2 0.0
19/12:30pm 17.7 13.2 6.3 47 5.6 WSW 19 30 10 16 1007.8 1007.8 0.0
19/12:00pm 19.3 13.0 5.7 41 6.7 WNW 28 39 15 21 1008.2 1008.2 0.0
19/11:30am 17.7 12.5 5.6 45 5.9 NW 22 32 12 17 1008.6 1008.6 0.0
19/11:00am 18.4 12.5 5.6 43 6.3 NW 26 41 14 22 1008.9 1008.9 0.0
19/10:30am 17.4 11.9 6.0 47 5.6 WNW 24 30 13 16 1009.0 1009.0 0.0
19/10:00am 17.1 11.6 5.7 47 5.5 NW 24 32 13 17 1009.0 1009.0 0.0
19/09:30am 15.0 12.7 7.3 60 3.8 NNE 9 13 5 7 1009.3 1009.3 0.0
19/09:00am 13.3 10.0 6.4 63 3.3 NE 13 17 7 9 1009.5 1009.5 0.0
19/08:30am 11.5 9.6 7.4 76 2.0 N 7 11 4 6 1009.5 1009.5 0.0
19/08:00am 9.3 7.3 6.9 85 1.1 N 7 9 4 5 1009.5 1009.5 0.0
19/07:30am 8.0 5.9 6.8 92 0.6 N 7 9 4 5 1009.3 1009.3 0.0
19/07:00am 6.3 3.9 5.1 92 0.5 NW 7 9 4 5 1009.2 1009.2 0.0
19/06:30am 6.6 3.9 5.4 92 0.5 WNW 9 11 5 6 1009.0 1009.0 0.0
19/06:00am 5.7 2.4 4.3 91 0.6 NNW 11 13 6 7 1009.1 1009.1 0.0
19/05:30am 6.4 3.2 4.9 90 0.7 WNW 11 11 6 6 1009.0 1009.0 0.0
19/05:00am 7.6 4.2 6.1 90 0.7 NW 13 13 7 7 1009.0 1009.0 0.0
19/04:30am 7.6 4.6 5.9 89 0.8 WNW 11 11 6 6 1009.1 1009.1 0.0
19/04:00am 7.6 5.4 6.1 90 0.7 NW 7 9 4 5 1009.5 1009.5 0.0
19/03:30am 7.7 4.3 5.8 88 0.9 NNW 13 17 7 9 1010.0 1010.0 0.0
19/03:00am 8.0 5.0 6.0 87 0.9 WNW 11 13 6 7 1010.2 1010.2 0.0
19/02:30am 8.8 6.2 6.3 84 1.1 NW 9 13 5 7 1010.6 1010.6 0.0
19/02:00am 7.3 4.6 5.6 89 0.8 NW 9 11 5 6 1010.7 1010.7 0.0
19/01:30am 7.9 5.7 6.0 88 0.9 NNW 7 11 4 6 1011.2 1011.2 0.0
19/01:00am 7.8 5.5 5.6 86 1.0 WNW 7 9 4 5 1011.4 1011.4 0.0
19/12:30am 8.3 5.7 6.3 87 0.9 WNW 9 11 5 6 1011.4 1011.4 0.0
19/12:00am 8.8 6.9 6.6 86 1.0 WNW 6 7 3 4 1011.4 1011.4 0.0
 
Date/Time
EDT
Temp
°C
App
Temp
°C
Dew
Point
°C
Rel
Hum
%
Delta-T
°C
Wind Press
QNH
hPa
Press
MSL
hPa
Rain since
9am
mm
Dir  Spd
km/h
Gust
km/h
Spd
kts
Gust
kts
18/11:30pm 9.1 7.2 6.7 85 1.1 N 6 7 3 4 1011.3 1011.3 0.0
18/11:00pm 10.1 7.1 7.7 85 1.2 W 13 15 7 8 1011.4 1011.4 0.0
18/10:30pm 10.0 7.3 7.4 84 1.2 W 11 11 6 6 1011.6 1011.6 0.0
18/10:00pm 11.7 10.1 8.6 81 1.5 NW 7 9 4 5 1011.7 1011.7 0.0
18/09:30pm 12.7 10.6 9.9 83 1.4 N 11 15 6 8 1011.7 1011.7 0.0
18/09:00pm 12.6 11.1 9.1 79 1.8 N 7 9 4 5 1011.4 1011.4 0.0
18/08:30pm 14.6 12.7 9.0 69 2.9 NNW 9 11 5 6 1011.1 1011.1 0.0
18/08:00pm 15.4 13.5 10.4 72 2.6 N 11 15 6 8 1010.8 1010.8 0.0
18/07:30pm 16.3 13.9 9.9 66 3.4 N 13 17 7 9 1010.4 1010.4 0.0
18/07:00pm 16.6 13.4 8.6 59 4.1 NE 15 19 8 10 1010.1 1010.1 0.0
18/06:30pm 16.7 14.9 7.9 56 4.4 ENE 7 11 4 6 1010.2 1010.2 0.0
18/06:00pm 16.8 13.6 8.5 58 4.2 ESE 15 17 8 9 1009.9 1009.9 0.0
18/05:30pm 17.1 14.6 8.3 56 4.5 ENE 11 17 6 9 1009.8 1009.8 0.0
18/05:00pm 17.1 14.6 8.3 56 4.5 ENE 11 15 6 8 1009.9 1009.9 0.0
18/04:30pm 16.6 14.6 8.8 60 4.0 SE 9 13 5 7 1009.9 1009.9 0.0
18/04:00pm 16.2 12.7 8.9 62 3.8 SSW 17 20 9 11 1010.0 1010.0 0.0
18/03:30pm 16.9 14.1 8.6 58 4.3 SSW 13 20 7 11 1009.8 1009.8 0.0
18/03:00pm 16.7 14.3 8.7 59 4.1 SE 11 17 6 9 1009.9 1009.9 0.0
18/02:30pm 16.4 14.2 9.3 63 3.7 S 11 19 6 10 1009.9 1009.9 0.0
18/02:00pm 16.7 15.0 9.9 64 3.6 SSE 9 15 5 8 1009.6 1009.6 0.0
18/01:30pm 16.6 14.9 10.0 65 3.5 SE 9 15 5 8 1009.7 1009.7 0.0
18/01:00pm 16.7 13.6 8.9 60 4.0 WSW 15 19 8 10 1009.8 1009.8 0.0
18/12:30pm 16.6 13.2 9.1 61 3.9 SW 17 22 9 12 1010.1 1010.1 0.0
18/12:00pm 16.6 13.1 8.6 59 4.1 SSW 17 24 9 13 1010.0 1010.0 0.0
18/11:30am 17.0 14.9 9.7 62 3.8 W 11 17 6 9 1010.2 1010.2 0.0
18/11:00am 16.2 13.0 10.1 67 3.2 WSW 17 24 9 13 1010.2 1010.2 0.0
18/10:30am 16.3 13.3 10.6 69 3.0 WSW 17 26 9 14 1010.1 1010.1 0.0
18/10:00am 16.0 13.8 10.7 71 2.8 W 13 20 7 11 1010.1 1010.1 0.0
18/09:30am 15.5 13.3 10.9 74 2.4 W 13 19 7 10 1010.2 1010.2 0.0
18/09:00am 15.4 13.3 11.2 76 2.2 W 13 17 7 9 1010.1 1010.1 0.0
18/08:30am 15.4 14.0 11.0 75 2.3 NW 9 13 5 7 1010.1 1010.1 0.0
18/08:00am 15.1 13.9 11.7 80 1.8 WNW 9 11 5 6 1009.7 1009.7 0.0
18/07:30am 15.1 14.6 11.9 81 1.7 SW 6 11 3 6 1009.4 1009.4 0.0
18/07:00am 15.1 14.4 12.1 82 1.6 WSW 7 9 4 5 1009.1 1009.1 0.0
18/06:30am 15.1 14.4 12.1 82 1.6 SW 7 11 4 6 1008.8 1008.8 0.0
18/06:00am 15.0 13.0 11.6 80 1.8 WSW 13 17 7 9 1008.7 1008.7 0.0
18/05:30am 15.2 13.6 11.6 79 1.9 W 11 15 6 8 1008.5 1008.5 0.0
18/05:00am 15.2 12.9 11.8 80 1.8 WSW 15 20 8 11 1008.5 1008.5 0.0
18/04:30am 15.3 12.6 11.7 79 1.9 W 17 20 9 11 1008.5 1008.5 0.0
18/04:00am 15.1 13.3 12.1 82 1.6 W 13 17 7 9 1008.7 1008.7 0.0
18/03:30am 15.1 15.0 13.8 92 0.7 NW 7 9 4 5 1008.6 1008.6 0.0
18/03:00am 15.1 14.6 13.8 92 0.7 SSE 9 11 5 6 1008.6 1008.6 0.0
18/02:30am 15.6 15.0 13.4 87 1.2 WSW 9 15 5 8 1008.7 1008.7 0.0
18/02:00am 15.9 15.0 13.7 87 1.2 SW 11 15 6 8 1009.0 1009.0 0.0
18/01:30am 16.2 15.2 13.5 84 1.5 WSW 11 15 6 8 1009.2 1009.2 0.0
18/01:00am 16.8 14.7 12.5 76 2.4 SW 15 17 8 9 1009.2 1009.2 0.0
18/12:30am 17.1 14.7 12.8 76 2.4 SSW 17 24 9 13 1009.2 1009.2 0.0
18/12:00am 17.5 18.3 13.8 79 2.1 ESE 2 9 1 5 1009.2 1009.2 0.0
 
Date/Time
EDT
Temp
°C
App
Temp
°C
Dew
Point
°C
Rel
Hum
%
Delta-T
°C
Wind Press
QNH
hPa
Press
MSL
hPa
Rain since
9am
mm
Dir  Spd
km/h
Gust
km/h
Spd
kts
Gust
kts
17/11:30pm 17.5 17.4 13.4 77 2.3 ENE 6 6 3 3 1009.5 1009.5 0.0
17/11:00pm 17.5 17.2 13.2 76 2.4 E 7 9 4 5 1009.6 1009.6 0.0
17/10:30pm 17.8 16.3 13.1 74 2.6 NE 13 15 7 8 1009.3 1009.3 0.0
17/10:00pm 18.0 15.7 12.9 72 2.9 NE 17 20 9 11 1009.1 1009.1 0.0
17/09:30pm 18.1 16.2 13.0 72 2.9 NE 15 20 8 11 1009.2 1009.2 0.0
17/09:00pm 18.3 16.7 12.7 70 3.1 ENE 13 17 7 9 1009.1 1009.1 0.0
17/08:30pm 18.7 16.8 13.1 70 3.2 NE 15 17 8 9 1008.9 1008.9 0.0
17/08:00pm 18.9 16.0 12.4 66 3.6 ENE 19 22 10 12 1008.6 1008.6 0.0
17/07:30pm 19.2 16.2 12.0 63 4.0 ENE 19 22 10 12 1008.1 1008.1 0.0
17/07:00pm 19.8 17.0 11.3 58 4.7 E 17 20 9 11 1007.9 1007.9 0.0
17/06:30pm 19.8 17.1 11.8 60 4.4 ESE 17 22 9 12 1007.8 1007.8 0.0
17/06:00pm 20.0 17.2 11.5 58 4.7 ESE 17 22 9 12 1007.8 1007.8 0.0
17/05:30pm 20.2 17.7 12.4 61 4.4 SE 17 20 9 11 1008.1 1008.1 0.0
17/05:00pm 20.2 17.2 11.9 59 4.6 SE 19 24 10 13 1007.9 1007.9 0.0
17/04:30pm 20.7 18.7 12.7 60 4.5 SSE 15 22 8 12 1007.8 1007.8 0.0
17/04:00pm 20.7 17.8 12.9 61 4.4 SSE 20 26 11 14 1007.8 1007.8 0.0
17/03:30pm 20.6 17.8 13.1 62 4.3 SSE 20 24 11 13 1007.9 1007.9 0.0
17/03:00pm 20.6 17.8 13.3 63 4.2 SE 20 30 11 16 1007.9 1007.9 0.0
17/02:30pm 20.9 18.3 13.1 61 4.4 SE 19 26 10 14 1008.0 1008.0 0.0
17/02:00pm 21.5 20.2 13.7 61 4.5 SSW 13 20 7 11 1007.9 1007.9 0.0
17/01:30pm 21.5 19.9 13.9 62 4.4 SSW 15 26 8 14 1008.1 1008.1 0.0
17/01:00pm 21.3 20.5 14.0 63 4.2 SW 11 19 6 10 1008.2 1008.2 0.0
17/12:30pm 21.1 20.4 14.3 65 4.0 SW 11 17 6 9 1008.5 1008.5 0.0
17/12:00pm 19.8 19.7 14.0 69 3.3 WSW 7 11 4 6 1008.8 1008.8 0.0
17/11:30am 19.8 20.7 14.0 69 3.3 NE 2 6 1 3 1008.8 1008.8 0.0
17/11:00am 18.6 17.7 13.7 73 2.8 SW 11 17 6 9 1009.0 1009.0 0.0
17/10:30am 18.3 17.1 14.0 76 2.5 SW 13 15 7 8 1008.9 1008.9 0.0
17/10:00am 18.0 16.9 14.3 79 2.1 SW 13 17 7 9 1008.8 1008.8 0.0
17/09:30am 17.5 16.4 14.4 82 1.8 SW 13 17 7 9 1008.7 1008.7 0.0
17/09:00am 17.3 17.6 14.4 83 1.7 WSW 6 11 3 6 1008.7 1008.7 0.0
17/08:30am 17.3 18.0 14.4 83 1.7 SSW 4 7 2 4 1008.4 1008.4 0.0
17/08:00am 16.9 17.2 14.4 85 1.4 NNW 6 7 3 4 1008.2 1008.2 0.0
17/07:30am 16.5 16.7 14.2 86 1.3 N 6 7 3 4 1008.2 1008.2 0.0
17/07:00am 16.3 16.2 14.0 86 1.3 NNE 7 11 4 6 1007.9 1007.9 0.0
17/06:30am 16.3 15.8 13.8 85 1.4 NNE 9 11 5 6 1007.7 1007.7 0.0
17/06:00am 16.4 16.1 13.3 82 1.7 NNE 7 11 4 6 1007.9 1007.9 0.0
17/05:30am 16.5 16.1 13.0 80 1.9 NNE 7 7 4 4 1008.1 1008.1 0.0
17/05:00am 16.4 16.2 12.9 80 1.9 N 6 7 3 4 1008.4 1008.4 0.0
17/04:30am 16.5 16.7 13.0 80 1.9 W 4 7 2 4 1008.6 1008.6 0.0
17/04:00am 16.5 16.2 12.8 79 2.1 N 6 7 3 4 1008.7 1008.7 0.0
17/03:30am 16.6 16.8 13.1 80 2.0 SW 4 7 2 4 1008.9 1008.9 0.0
17/03:00am 16.5 17.4 13.0 80 2.0 CALM 0 0 0 0 1009.0 1009.0 0.0
17/02:30am 16.8 17.3 12.7 77 2.3 SSE 2 6 1 3 1009.1 1009.1 0.0
17/02:00am 16.7 16.3 12.5 76 2.3 S 6 7 3 4 1009.5 1009.5 0.0
17/01:30am 16.8 15.9 12.5 76 2.4 S 9 11 5 6 1009.8 1009.8 0.0
17/01:00am 16.8 15.6 12.7 77 2.3 S 11 13 6 7 1010.1 1010.1 0.0
17/12:30am 16.9 15.2 12.6 76 2.4 SSE 13 17 7 9 1010.3 1010.3 0.0
17/12:00am 16.9 15.3 12.8 77 2.3 SE 13 19 7 10 1010.4 1010.4 0.0
 
Date/Time
EDT
Temp
°C
App
Temp
°C
Dew
Point
°C
Rel
Hum
%
Delta-T
°C
Wind Press
QNH
hPa
Press
MSL
hPa
Rain since
9am
mm
Dir  Spd
km/h
Gust
km/h
Spd
kts
Gust
kts
16/11:30pm 17.0 15.0 12.7 76 2.4 SSE 15 19 8 10 1010.4 1010.4 0.0
16/11:00pm 17.0 14.9 12.5 75 2.5 SSE 15 20 8 11 1010.5 1010.5 0.0

Other Formats:

Comma delimited format used in spreadsheet applications
http://www.bom.gov.au/fwo/IDV60801/IDV60801.94907.axf

JavaScript Object Notation format (JSON) in row-major order
http://www.bom.gov.au/fwo/IDV60801/IDV60801.94907.json